sensor_id;sensor_type;location;lat;lon;timestamp;P1;durP1;ratioP1;P2;durP2;ratioP2
15102;SDS011;7652;53.584;9.998;2024-01-30T00:02:57;10.93;;;6.70;;
15102;SDS011;7652;53.584;9.998;2024-01-30T00:06:18;8.50;;;6.50;;
15102;SDS011;7652;53.584;9.998;2024-01-30T00:09:41;7.07;;;6.03;;
15102;SDS011;7652;53.584;9.998;2024-01-30T00:13:02;8.50;;;6.00;;
15102;SDS011;7652;53.584;9.998;2024-01-30T00:16:24;10.47;;;6.97;;
15102;SDS011;7652;53.584;9.998;2024-01-30T00:19:47;8.90;;;6.13;;
15102;SDS011;7652;53.584;9.998;2024-01-30T00:23:09;8.47;;;6.57;;
15102;SDS011;7652;53.584;9.998;2024-01-30T00:26:31;8.43;;;6.10;;
15102;SDS011;7652;53.584;9.998;2024-01-30T00:29:52;7.20;;;6.03;;
15102;SDS011;7652;53.584;9.998;2024-01-30T00:33:14;6.43;;;5.70;;
15102;SDS011;7652;53.584;9.998;2024-01-30T00:36:37;8.13;;;5.70;;
15102;SDS011;7652;53.584;9.998;2024-01-30T00:39:59;7.27;;;5.80;;
15102;SDS011;7652;53.584;9.998;2024-01-30T00:43:20;9.90;;;6.00;;
15102;SDS011;7652;53.584;9.998;2024-01-30T00:46:42;7.90;;;5.43;;
15102;SDS011;7652;53.584;9.998;2024-01-30T00:50:03;8.50;;;6.47;;
15102;SDS011;7652;53.584;9.998;2024-01-30T00:53:27;6.30;;;5.47;;
15102;SDS011;7652;53.584;9.998;2024-01-30T00:56:48;9.83;;;6.33;;
15102;SDS011;7652;53.584;9.998;2024-01-30T01:00:10;6.73;;;5.83;;
15102;SDS011;7652;53.584;9.998;2024-01-30T01:03:33;7.70;;;6.13;;
15102;SDS011;7652;53.584;9.998;2024-01-30T01:06:54;9.57;;;6.30;;
15102;SDS011;7652;53.584;9.998;2024-01-30T01:10:18;8.07;;;6.30;;
15102;SDS011;7652;53.584;9.998;2024-01-30T01:13:39;7.30;;;5.73;;
15102;SDS011;7652;53.584;9.998;2024-01-30T01:17:01;7.13;;;5.90;;
15102;SDS011;7652;53.584;9.998;2024-01-30T01:20:23;8.70;;;5.87;;
15102;SDS011;7652;53.584;9.998;2024-01-30T01:23:44;7.00;;;5.83;;
15102;SDS011;7652;53.584;9.998;2024-01-30T01:27:07;8.10;;;5.83;;
15102;SDS011;7652;53.584;9.998;2024-01-30T01:30:28;7.57;;;5.77;;
15102;SDS011;7652;53.584;9.998;2024-01-30T01:33:50;8.00;;;5.53;;
15102;SDS011;7652;53.584;9.998;2024-01-30T01:37:12;8.17;;;6.27;;
15102;SDS011;7652;53.584;9.998;2024-01-30T01:40:33;5.80;;;5.17;;
15102;SDS011;7652;53.584;9.998;2024-01-30T01:43:56;6.83;;;6.00;;
15102;SDS011;7652;53.584;9.998;2024-01-30T01:47:17;8.50;;;5.67;;
15102;SDS011;7652;53.584;9.998;2024-01-30T01:50:39;6.93;;;6.20;;
15102;SDS011;7652;53.584;9.998;2024-01-30T01:54:01;5.73;;;5.13;;
15102;SDS011;7652;53.584;9.998;2024-01-30T01:57:25;7.70;;;5.93;;
15102;SDS011;7652;53.584;9.998;2024-01-30T02:00:48;8.23;;;5.77;;
15102;SDS011;7652;53.584;9.998;2024-01-30T02:04:10;8.20;;;5.90;;
15102;SDS011;7652;53.584;9.998;2024-01-30T02:07:32;7.03;;;5.30;;
15102;SDS011;7652;53.584;9.998;2024-01-30T02:10:54;9.77;;;5.37;;
15102;SDS011;7652;53.584;9.998;2024-01-30T02:14:16;7.03;;;5.30;;
15102;SDS011;7652;53.584;9.998;2024-01-30T02:17:39;7.20;;;5.53;;
15102;SDS011;7652;53.584;9.998;2024-01-30T02:21:04;8.37;;;6.13;;
15102;SDS011;7652;53.584;9.998;2024-01-30T02:24:26;7.60;;;5.23;;
15102;SDS011;7652;53.584;9.998;2024-01-30T02:27:48;10.03;;;5.40;;
15102;SDS011;7652;53.584;9.998;2024-01-30T02:31:09;8.30;;;5.50;;
15102;SDS011;7652;53.584;9.998;2024-01-30T02:34:31;7.97;;;5.60;;
15102;SDS011;7652;53.584;9.998;2024-01-30T02:37:54;7.43;;;5.70;;
15102;SDS011;7652;53.584;9.998;2024-01-30T02:41:15;6.80;;;5.00;;
15102;SDS011;7652;53.584;9.998;2024-01-30T02:44:37;8.23;;;5.63;;
15102;SDS011;7652;53.584;9.998;2024-01-30T02:47:58;7.80;;;5.60;;
15102;SDS011;7652;53.584;9.998;2024-01-30T02:51:20;10.20;;;6.27;;
15102;SDS011;7652;53.584;9.998;2024-01-30T02:54:43;6.70;;;5.37;;
15102;SDS011;7652;53.584;9.998;2024-01-30T02:58:04;8.93;;;5.20;;
15102;SDS011;7652;53.584;9.998;2024-01-30T03:01:26;7.27;;;5.40;;
15102;SDS011;7652;53.584;9.998;2024-01-30T03:04:49;7.47;;;5.60;;
15102;SDS011;7652;53.584;9.998;2024-01-30T03:08:11;10.13;;;5.73;;
15102;SDS011;7652;53.584;9.998;2024-01-30T03:11:34;7.70;;;5.37;;
15102;SDS011;7652;53.584;9.998;2024-01-30T03:14:55;6.40;;;5.17;;
15102;SDS011;7652;53.584;9.998;2024-01-30T03:18:17;5.97;;;5.23;;
15102;SDS011;7652;53.584;9.998;2024-01-30T03:21:38;7.80;;;5.77;;
15102;SDS011;7652;53.584;9.998;2024-01-30T03:25:00;5.97;;;5.37;;
15102;SDS011;7652;53.584;9.998;2024-01-30T03:28:22;8.83;;;5.97;;
15102;SDS011;7652;53.584;9.998;2024-01-30T03:31:44;9.67;;;6.33;;
15102;SDS011;7652;53.584;9.998;2024-01-30T03:35:06;11.73;;;6.30;;
15102;SDS011;7652;53.584;9.998;2024-01-30T03:38:28;10.37;;;6.77;;
15102;SDS011;7652;53.584;9.998;2024-01-30T03:41:49;8.40;;;6.20;;
15102;SDS011;7652;53.584;9.998;2024-01-30T03:45:12;6.90;;;5.67;;
15102;SDS011;7652;53.584;9.998;2024-01-30T03:48:34;7.40;;;5.73;;
15102;SDS011;7652;53.584;9.998;2024-01-30T03:51:56;9.03;;;6.13;;
15102;SDS011;7652;53.584;9.998;2024-01-30T03:55:17;8.73;;;6.20;;
15102;SDS011;7652;53.584;9.998;2024-01-30T03:58:39;8.43;;;6.03;;
15102;SDS011;7652;53.584;9.998;2024-01-30T04:02:02;7.40;;;6.10;;
15102;SDS011;7652;53.584;9.998;2024-01-30T04:05:24;10.73;;;6.17;;
15102;SDS011;7652;53.584;9.998;2024-01-30T04:08:45;8.40;;;6.27;;
15102;SDS011;7652;53.584;9.998;2024-01-30T04:12:07;9.80;;;6.47;;
15102;SDS011;7652;53.584;9.998;2024-01-30T04:15:29;9.83;;;6.57;;
15102;SDS011;7652;53.584;9.998;2024-01-30T04:18:52;9.10;;;6.40;;
15102;SDS011;7652;53.584;9.998;2024-01-30T04:22:13;9.20;;;6.43;;
15102;SDS011;7652;53.584;9.998;2024-01-30T04:25:35;9.60;;;6.33;;
15102;SDS011;7652;53.584;9.998;2024-01-30T04:28:56;8.97;;;5.97;;
15102;SDS011;7652;53.584;9.998;2024-01-30T04:32:18;14.37;;;6.93;;
15102;SDS011;7652;53.584;9.998;2024-01-30T04:35:40;9.90;;;6.57;;
15102;SDS011;7652;53.584;9.998;2024-01-30T04:39:02;8.80;;;6.20;;
15102;SDS011;7652;53.584;9.998;2024-01-30T04:42:23;8.37;;;6.70;;
15102;SDS011;7652;53.584;9.998;2024-01-30T04:45:45;7.53;;;6.53;;
15102;SDS011;7652;53.584;9.998;2024-01-30T04:49:06;8.87;;;7.00;;
15102;SDS011;7652;53.584;9.998;2024-01-30T04:52:29;11.10;;;6.90;;
15102;SDS011;7652;53.584;9.998;2024-01-30T04:55:51;8.90;;;6.97;;
15102;SDS011;7652;53.584;9.998;2024-01-30T04:59:12;9.47;;;7.27;;
15102;SDS011;7652;53.584;9.998;2024-01-30T05:02:34;9.57;;;6.77;;
15102;SDS011;7652;53.584;9.998;2024-01-30T05:05:55;7.67;;;6.43;;
15102;SDS011;7652;53.584;9.998;2024-01-30T05:09:18;8.63;;;6.73;;
15102;SDS011;7652;53.584;9.998;2024-01-30T05:12:40;10.70;;;7.17;;
15102;SDS011;7652;53.584;9.998;2024-01-30T05:16:02;8.83;;;6.80;;
15102;SDS011;7652;53.584;9.998;2024-01-30T05:19:24;7.90;;;6.57;;
15102;SDS011;7652;53.584;9.998;2024-01-30T05:22:46;10.90;;;7.60;;
15102;SDS011;7652;53.584;9.998;2024-01-30T05:26:09;9.47;;;7.30;;
15102;SDS011;7652;53.584;9.998;2024-01-30T05:29:30;7.97;;;7.13;;
15102;SDS011;7652;53.584;9.998;2024-01-30T05:32:52;8.57;;;6.87;;
15102;SDS011;7652;53.584;9.998;2024-01-30T05:36:13;10.23;;;6.77;;
15102;SDS011;7652;53.584;9.998;2024-01-30T05:39:35;10.73;;;7.63;;
15102;SDS011;7652;53.584;9.998;2024-01-30T05:42:58;11.13;;;8.10;;
15102;SDS011;7652;53.584;9.998;2024-01-30T05:46:23;12.13;;;8.03;;
15102;SDS011;7652;53.584;9.998;2024-01-30T05:49:45;11.87;;;8.07;;
15102;SDS011;7652;53.584;9.998;2024-01-30T05:53:06;11.13;;;8.37;;
15102;SDS011;7652;53.584;9.998;2024-01-30T05:56:28;11.37;;;7.97;;
15102;SDS011;7652;53.584;9.998;2024-01-30T05:59:50;11.57;;;7.93;;
15102;SDS011;7652;53.584;9.998;2024-01-30T06:03:12;12.27;;;9.23;;
15102;SDS011;7652;53.584;9.998;2024-01-30T06:06:34;13.43;;;8.70;;
15102;SDS011;7652;53.584;9.998;2024-01-30T06:09:55;11.63;;;8.60;;
15102;SDS011;7652;53.584;9.998;2024-01-30T06:13:16;9.47;;;7.27;;
15102;SDS011;7652;53.584;9.998;2024-01-30T06:16:39;11.07;;;7.93;;
15102;SDS011;7652;53.584;9.998;2024-01-30T06:20:01;10.57;;;7.63;;
15102;SDS011;7652;53.584;9.998;2024-01-30T06:23:23;16.70;;;8.97;;
15102;SDS011;7652;53.584;9.998;2024-01-30T06:26:45;12.47;;;8.37;;
15102;SDS011;7652;53.584;9.998;2024-01-30T06:30:06;11.27;;;8.33;;
15102;SDS011;7652;53.584;9.998;2024-01-30T06:33:30;8.77;;;7.57;;
15102;SDS011;7652;53.584;9.998;2024-01-30T06:36:52;11.27;;;7.93;;
15102;SDS011;7652;53.584;9.998;2024-01-30T06:40:13;11.87;;;8.67;;
15102;SDS011;7652;53.584;9.998;2024-01-30T06:43:35;11.37;;;8.40;;
15102;SDS011;7652;53.584;9.998;2024-01-30T06:46:56;14.30;;;8.10;;
15102;SDS011;7652;53.584;9.998;2024-01-30T06:50:19;12.00;;;8.50;;
15102;SDS011;7652;53.584;9.998;2024-01-30T06:53:40;12.93;;;9.30;;
15102;SDS011;7652;53.584;9.998;2024-01-30T06:57:02;11.03;;;8.30;;
15102;SDS011;7652;53.584;9.998;2024-01-30T07:00:24;10.90;;;8.50;;
15102;SDS011;7652;53.584;9.998;2024-01-30T07:03:45;13.20;;;9.10;;
15102;SDS011;7652;53.584;9.998;2024-01-30T07:07:09;13.63;;;9.13;;
15102;SDS011;7652;53.584;9.998;2024-01-30T07:10:32;13.03;;;9.00;;
15102;SDS011;7652;53.584;9.998;2024-01-30T07:13:54;11.10;;;8.40;;
15102;SDS011;7652;53.584;9.998;2024-01-30T07:17:15;12.87;;;8.57;;
15102;SDS011;7652;53.584;9.998;2024-01-30T07:20:37;13.07;;;8.53;;
15102;SDS011;7652;53.584;9.998;2024-01-30T07:24:04;11.10;;;8.70;;
15102;SDS011;7652;53.584;9.998;2024-01-30T07:27:25;15.70;;;9.33;;
15102;SDS011;7652;53.584;9.998;2024-01-30T07:30:47;14.13;;;8.50;;
15102;SDS011;7652;53.584;9.998;2024-01-30T07:34:09;10.03;;;8.37;;
15102;SDS011;7652;53.584;9.998;2024-01-30T07:37:31;11.80;;;8.67;;
15102;SDS011;7652;53.584;9.998;2024-01-30T07:40:54;14.20;;;9.60;;
15102;SDS011;7652;53.584;9.998;2024-01-30T07:44:16;13.20;;;9.37;;
15102;SDS011;7652;53.584;9.998;2024-01-30T07:47:37;13.10;;;9.10;;
15102;SDS011;7652;53.584;9.998;2024-01-30T07:50:59;14.67;;;9.07;;
15102;SDS011;7652;53.584;9.998;2024-01-30T07:54:20;14.13;;;9.73;;
15102;SDS011;7652;53.584;9.998;2024-01-30T07:57:44;12.77;;;9.43;;
15102;SDS011;7652;53.584;9.998;2024-01-30T08:01:06;12.53;;;9.33;;
15102;SDS011;7652;53.584;9.998;2024-01-30T08:04:27;12.60;;;9.37;;
15102;SDS011;7652;53.584;9.998;2024-01-30T08:07:49;11.63;;;9.40;;
15102;SDS011;7652;53.584;9.998;2024-01-30T08:11:12;12.70;;;9.43;;
15102;SDS011;7652;53.584;9.998;2024-01-30T08:14:35;13.67;;;9.77;;
15102;SDS011;7652;53.584;9.998;2024-01-30T08:17:56;14.30;;;9.67;;
15102;SDS011;7652;53.584;9.998;2024-01-30T08:21:18;13.47;;;9.30;;
15102;SDS011;7652;53.584;9.998;2024-01-30T08:24:40;13.30;;;9.33;;
15102;SDS011;7652;53.584;9.998;2024-01-30T08:28:03;14.90;;;9.87;;
15102;SDS011;7652;53.584;9.998;2024-01-30T08:31:26;14.23;;;10.30;;
15102;SDS011;7652;53.584;9.998;2024-01-30T08:34:49;14.83;;;10.30;;
15102;SDS011;7652;53.584;9.998;2024-01-30T08:38:11;12.03;;;9.97;;
15102;SDS011;7652;53.584;9.998;2024-01-30T08:41:32;13.37;;;9.23;;
15102;SDS011;7652;53.584;9.998;2024-01-30T08:44:54;12.97;;;10.23;;
15102;SDS011;7652;53.584;9.998;2024-01-30T08:48:17;16.33;;;10.13;;
15102;SDS011;7652;53.584;9.998;2024-01-30T08:51:39;11.57;;;9.17;;
15102;SDS011;7652;53.584;9.998;2024-01-30T08:55:00;14.63;;;9.67;;
15102;SDS011;7652;53.584;9.998;2024-01-30T08:58:22;11.87;;;9.07;;
15102;SDS011;7652;53.584;9.998;2024-01-30T09:01:44;12.30;;;9.57;;
15102;SDS011;7652;53.584;9.998;2024-01-30T09:05:23;13.47;;;9.90;;
15102;SDS011;7652;53.584;9.998;2024-01-30T09:08:45;14.80;;;9.60;;
15102;SDS011;7652;53.584;9.998;2024-01-30T09:12:06;13.03;;;9.73;;
15102;SDS011;7652;53.584;9.998;2024-01-30T09:15:29;15.70;;;10.40;;
15102;SDS011;7652;53.584;9.998;2024-01-30T09:18:51;11.30;;;9.40;;
15102;SDS011;7652;53.584;9.998;2024-01-30T09:22:14;16.40;;;10.40;;
15102;SDS011;7652;53.584;9.998;2024-01-30T09:25:35;12.47;;;9.43;;
15102;SDS011;7652;53.584;9.998;2024-01-30T09:28:57;10.93;;;9.30;;
15102;SDS011;7652;53.584;9.998;2024-01-30T09:32:18;15.17;;;9.47;;
15102;SDS011;7652;53.584;9.998;2024-01-30T09:35:40;13.90;;;10.53;;
15102;SDS011;7652;53.584;9.998;2024-01-30T09:42:35;12.00;;;9.70;;
15102;SDS011;7652;53.584;9.998;2024-01-30T09:45:57;14.63;;;10.07;;
15102;SDS011;7652;53.584;9.998;2024-01-30T09:49:21;13.93;;;9.73;;
15102;SDS011;7652;53.584;9.998;2024-01-30T09:52:44;13.30;;;9.40;;
15102;SDS011;7652;53.584;9.998;2024-01-30T09:56:08;13.07;;;9.53;;
15102;SDS011;7652;53.584;9.998;2024-01-30T09:59:31;13.80;;;9.20;;
15102;SDS011;7652;53.584;9.998;2024-01-30T10:02:53;13.80;;;9.57;;
15102;SDS011;7652;53.584;9.998;2024-01-30T10:06:14;12.57;;;9.67;;
15102;SDS011;7652;53.584;9.998;2024-01-30T10:09:40;17.30;;;10.30;;
15102;SDS011;7652;53.584;9.998;2024-01-30T10:13:03;12.53;;;9.40;;
15102;SDS011;7652;53.584;9.998;2024-01-30T10:16:25;16.80;;;9.70;;
15102;SDS011;7652;53.584;9.998;2024-01-30T10:19:46;15.33;;;10.00;;
15102;SDS011;7652;53.584;9.998;2024-01-30T10:23:08;12.33;;;9.93;;
15102;SDS011;7652;53.584;9.998;2024-01-30T10:26:30;15.30;;;10.33;;
15102;SDS011;7652;53.584;9.998;2024-01-30T10:29:55;17.03;;;9.93;;
15102;SDS011;7652;53.584;9.998;2024-01-30T10:33:17;15.07;;;10.17;;
15102;SDS011;7652;53.584;9.998;2024-01-30T10:36:40;14.07;;;9.70;;
15102;SDS011;7652;53.584;9.998;2024-01-30T10:40:03;15.80;;;10.30;;
15102;SDS011;7652;53.584;9.998;2024-01-30T10:43:28;16.03;;;10.23;;
15102;SDS011;7652;53.584;9.998;2024-01-30T10:47:00;14.67;;;10.13;;
15102;SDS011;7652;53.584;9.998;2024-01-30T10:50:27;13.70;;;9.93;;
15102;SDS011;7652;53.584;9.998;2024-01-30T10:53:53;14.40;;;10.27;;
15102;SDS011;7652;53.584;9.998;2024-01-30T10:57:16;16.20;;;9.90;;
15102;SDS011;7652;53.584;9.998;2024-01-30T11:00:38;12.07;;;10.07;;
15102;SDS011;7652;53.584;9.998;2024-01-30T11:04:01;12.47;;;9.27;;
15102;SDS011;7652;53.584;9.998;2024-01-30T11:07:24;11.27;;;9.07;;
15102;SDS011;7652;53.584;9.998;2024-01-30T11:10:46;15.80;;;9.90;;
15102;SDS011;7652;53.584;9.998;2024-01-30T11:14:09;11.53;;;9.17;;
15102;SDS011;7652;53.584;9.998;2024-01-30T11:17:44;13.03;;;9.43;;
15102;SDS011;7652;53.584;9.998;2024-01-30T11:21:12;13.77;;;9.83;;
15102;SDS011;7652;53.584;9.998;2024-01-30T11:24:38;15.60;;;10.07;;
15102;SDS011;7652;53.584;9.998;2024-01-30T11:28:01;17.53;;;9.80;;
15102;SDS011;7652;53.584;9.998;2024-01-30T11:31:23;15.47;;;10.33;;
15102;SDS011;7652;53.584;9.998;2024-01-30T11:34:44;12.60;;;9.47;;
15102;SDS011;7652;53.584;9.998;2024-01-30T11:38:08;13.83;;;9.03;;
15102;SDS011;7652;53.584;9.998;2024-01-30T11:41:31;13.03;;;10.23;;
15102;SDS011;7652;53.584;9.998;2024-01-30T11:44:54;15.07;;;10.33;;
15102;SDS011;7652;53.584;9.998;2024-01-30T11:48:15;13.77;;;9.33;;
15102;SDS011;7652;53.584;9.998;2024-01-30T11:51:37;12.33;;;9.80;;
15102;SDS011;7652;53.584;9.998;2024-01-30T11:55:00;12.17;;;9.03;;
15102;SDS011;7652;53.584;9.998;2024-01-30T11:58:24;11.83;;;9.43;;
15102;SDS011;7652;53.584;9.998;2024-01-30T12:01:46;13.50;;;10.23;;
15102;SDS011;7652;53.584;9.998;2024-01-30T12:05:08;13.07;;;9.20;;
15102;SDS011;7652;53.584;9.998;2024-01-30T12:08:30;12.77;;;9.20;;
15102;SDS011;7652;53.584;9.998;2024-01-30T12:11:52;11.73;;;8.80;;
15102;SDS011;7652;53.584;9.998;2024-01-30T12:15:14;13.87;;;9.47;;
15102;SDS011;7652;53.584;9.998;2024-01-30T12:18:36;14.50;;;9.37;;
15102;SDS011;7652;53.584;9.998;2024-01-30T12:21:57;9.87;;;8.30;;
15102;SDS011;7652;53.584;9.998;2024-01-30T12:25:20;14.37;;;9.80;;
15102;SDS011;7652;53.584;9.998;2024-01-30T12:28:50;15.63;;;9.83;;
15102;SDS011;7652;53.584;9.998;2024-01-30T12:32:15;10.97;;;8.27;;
15102;SDS011;7652;53.584;9.998;2024-01-30T12:35:37;10.67;;;8.70;;
15102;SDS011;7652;53.584;9.998;2024-01-30T12:39:11;11.43;;;8.27;;
15102;SDS011;7652;53.584;9.998;2024-01-30T12:42:34;8.77;;;7.33;;
15102;SDS011;7652;53.584;9.998;2024-01-30T12:45:57;11.40;;;7.63;;
15102;SDS011;7652;53.584;9.998;2024-01-30T12:49:21;9.87;;;7.70;;
15102;SDS011;7652;53.584;9.998;2024-01-30T12:52:43;12.00;;;7.70;;
15102;SDS011;7652;53.584;9.998;2024-01-30T12:56:08;10.30;;;7.90;;
15102;SDS011;7652;53.584;9.998;2024-01-30T12:59:30;10.27;;;7.17;;
15102;SDS011;7652;53.584;9.998;2024-01-30T13:02:53;9.87;;;7.30;;
15102;SDS011;7652;53.584;9.998;2024-01-30T13:06:14;11.97;;;7.90;;
15102;SDS011;7652;53.584;9.998;2024-01-30T13:09:36;11.17;;;7.30;;
15102;SDS011;7652;53.584;9.998;2024-01-30T13:12:58;11.47;;;7.73;;
15102;SDS011;7652;53.584;9.998;2024-01-30T13:16:19;11.83;;;8.00;;
15102;SDS011;7652;53.584;9.998;2024-01-30T13:19:43;9.63;;;7.20;;
15102;SDS011;7652;53.584;9.998;2024-01-30T13:23:05;10.93;;;7.33;;
15102;SDS011;7652;53.584;9.998;2024-01-30T13:26:26;9.73;;;7.20;;
15102;SDS011;7652;53.584;9.998;2024-01-30T13:29:48;9.53;;;7.77;;
15102;SDS011;7652;53.584;9.998;2024-01-30T13:33:10;11.27;;;7.77;;
15102;SDS011;7652;53.584;9.998;2024-01-30T13:36:33;11.17;;;7.57;;
15102;SDS011;7652;53.584;9.998;2024-01-30T13:39:55;10.03;;;6.80;;
15102;SDS011;7652;53.584;9.998;2024-01-30T13:43:16;12.07;;;7.20;;
15102;SDS011;7652;53.584;9.998;2024-01-30T13:46:38;11.87;;;7.43;;
15102;SDS011;7652;53.584;9.998;2024-01-30T13:49:59;10.80;;;7.87;;
15102;SDS011;7652;53.584;9.998;2024-01-30T13:53:24;11.13;;;7.73;;
15102;SDS011;7652;53.584;9.998;2024-01-30T13:56:45;10.50;;;7.10;;
15102;SDS011;7652;53.584;9.998;2024-01-30T14:00:07;10.17;;;7.17;;
15102;SDS011;7652;53.584;9.998;2024-01-30T14:03:29;12.03;;;7.30;;
15102;SDS011;7652;53.584;9.998;2024-01-30T14:06:51;10.43;;;7.07;;
15102;SDS011;7652;53.584;9.998;2024-01-30T14:10:25;9.83;;;7.10;;
15102;SDS011;7652;53.584;9.998;2024-01-30T14:13:47;10.27;;;7.90;;
15102;SDS011;7652;53.584;9.998;2024-01-30T14:17:08;8.63;;;7.30;;
15102;SDS011;7652;53.584;9.998;2024-01-30T14:20:30;10.97;;;7.27;;
15102;SDS011;7652;53.584;9.998;2024-01-30T14:23:52;8.87;;;6.97;;
15102;SDS011;7652;53.584;9.998;2024-01-30T14:27:14;10.50;;;7.63;;
15102;SDS011;7652;53.584;9.998;2024-01-30T14:30:36;10.00;;;6.83;;
15102;SDS011;7652;53.584;9.998;2024-01-30T14:33:57;12.07;;;7.53;;
15102;SDS011;7652;53.584;9.998;2024-01-30T14:37:20;11.80;;;7.20;;
15102;SDS011;7652;53.584;9.998;2024-01-30T14:40:42;8.73;;;7.47;;
15102;SDS011;7652;53.584;9.998;2024-01-30T14:44:05;10.60;;;8.17;;
15102;SDS011;7652;53.584;9.998;2024-01-30T14:47:27;11.97;;;7.83;;
15102;SDS011;7652;53.584;9.998;2024-01-30T14:50:49;11.50;;;7.40;;
15102;SDS011;7652;53.584;9.998;2024-01-30T14:54:10;12.77;;;7.87;;
15102;SDS011;7652;53.584;9.998;2024-01-30T14:57:32;10.07;;;6.90;;
15102;SDS011;7652;53.584;9.998;2024-01-30T15:00:56;13.17;;;7.60;;
15102;SDS011;7652;53.584;9.998;2024-01-30T15:04:18;9.27;;;7.23;;
15102;SDS011;7652;53.584;9.998;2024-01-30T15:07:40;11.60;;;7.47;;
15102;SDS011;7652;53.584;9.998;2024-01-30T15:11:02;10.00;;;7.60;;
15102;SDS011;7652;53.584;9.998;2024-01-30T15:14:24;9.57;;;7.47;;
15102;SDS011;7652;53.584;9.998;2024-01-30T15:17:47;9.20;;;6.57;;
15102;SDS011;7652;53.584;9.998;2024-01-30T15:21:09;11.00;;;7.50;;
15102;SDS011;7652;53.584;9.998;2024-01-30T15:24:30;8.27;;;6.70;;
15102;SDS011;7652;53.584;9.998;2024-01-30T15:27:51;10.80;;;7.20;;
15102;SDS011;7652;53.584;9.998;2024-01-30T15:31:13;9.83;;;7.13;;
15102;SDS011;7652;53.584;9.998;2024-01-30T15:34:36;11.53;;;7.77;;
15102;SDS011;7652;53.584;9.998;2024-01-30T15:37:58;10.10;;;7.03;;
15102;SDS011;7652;53.584;9.998;2024-01-30T15:41:20;10.30;;;7.33;;
15102;SDS011;7652;53.584;9.998;2024-01-30T15:44:42;13.50;;;7.50;;
15102;SDS011;7652;53.584;9.998;2024-01-30T15:48:04;12.03;;;7.70;;
15102;SDS011;7652;53.584;9.998;2024-01-30T15:51:27;10.30;;;7.73;;
15102;SDS011;7652;53.584;9.998;2024-01-30T15:54:49;11.53;;;7.30;;
15102;SDS011;7652;53.584;9.998;2024-01-30T15:58:10;12.67;;;8.07;;
15102;SDS011;7652;53.584;9.998;2024-01-30T16:01:32;9.27;;;7.70;;
15102;SDS011;7652;53.584;9.998;2024-01-30T16:04:54;9.13;;;7.73;;
15102;SDS011;7652;53.584;9.998;2024-01-30T16:08:18;11.60;;;7.90;;
15102;SDS011;7652;53.584;9.998;2024-01-30T16:11:39;12.37;;;7.80;;
15102;SDS011;7652;53.584;9.998;2024-01-30T16:15:01;11.93;;;8.43;;
15102;SDS011;7652;53.584;9.998;2024-01-30T16:18:23;10.87;;;8.23;;
15102;SDS011;7652;53.584;9.998;2024-01-30T16:21:46;13.37;;;7.47;;
15102;SDS011;7652;53.584;9.998;2024-01-30T16:25:09;11.53;;;8.33;;
15102;SDS011;7652;53.584;9.998;2024-01-30T16:28:31;10.43;;;8.13;;
15102;SDS011;7652;53.584;9.998;2024-01-30T16:31:55;10.87;;;8.13;;
15102;SDS011;7652;53.584;9.998;2024-01-30T16:35:18;12.87;;;8.03;;
15102;SDS011;7652;53.584;9.998;2024-01-30T16:38:39;11.57;;;8.20;;
15102;SDS011;7652;53.584;9.998;2024-01-30T16:42:02;13.93;;;8.13;;
15102;SDS011;7652;53.584;9.998;2024-01-30T16:45:24;11.33;;;8.37;;
15102;SDS011;7652;53.584;9.998;2024-01-30T16:48:45;12.10;;;7.37;;
15102;SDS011;7652;53.584;9.998;2024-01-30T16:52:09;11.97;;;8.37;;
15102;SDS011;7652;53.584;9.998;2024-01-30T16:55:30;11.93;;;7.87;;
15102;SDS011;7652;53.584;9.998;2024-01-30T16:58:54;15.43;;;8.53;;
15102;SDS011;7652;53.584;9.998;2024-01-30T17:02:15;9.43;;;7.87;;
15102;SDS011;7652;53.584;9.998;2024-01-30T17:05:37;10.93;;;7.50;;
15102;SDS011;7652;53.584;9.998;2024-01-30T17:08:59;10.27;;;7.73;;
15102;SDS011;7652;53.584;9.998;2024-01-30T17:12:20;12.30;;;7.73;;
15102;SDS011;7652;53.584;9.998;2024-01-30T17:15:43;12.93;;;7.80;;
15102;SDS011;7652;53.584;9.998;2024-01-30T17:19:04;10.20;;;7.83;;
15102;SDS011;7652;53.584;9.998;2024-01-30T17:22:26;11.30;;;7.50;;
15102;SDS011;7652;53.584;9.998;2024-01-30T17:25:49;11.43;;;7.60;;
15102;SDS011;7652;53.584;9.998;2024-01-30T17:29:11;9.93;;;7.97;;
15102;SDS011;7652;53.584;9.998;2024-01-30T17:32:36;8.83;;;7.93;;
15102;SDS011;7652;53.584;9.998;2024-01-30T17:35:57;10.47;;;7.80;;
15102;SDS011;7652;53.584;9.998;2024-01-30T17:39:18;11.10;;;7.70;;
15102;SDS011;7652;53.584;9.998;2024-01-30T17:42:40;11.57;;;7.60;;
15102;SDS011;7652;53.584;9.998;2024-01-30T17:46:01;16.13;;;8.17;;
15102;SDS011;7652;53.584;9.998;2024-01-30T17:49:25;13.10;;;9.27;;
15102;SDS011;7652;53.584;9.998;2024-01-30T17:52:50;8.97;;;7.30;;
15102;SDS011;7652;53.584;9.998;2024-01-30T17:56:13;8.40;;;7.00;;
15102;SDS011;7652;53.584;9.998;2024-01-30T17:59:35;8.90;;;7.10;;
15102;SDS011;7652;53.584;9.998;2024-01-30T18:02:57;9.00;;;6.77;;
15102;SDS011;7652;53.584;9.998;2024-01-30T18:06:20;8.47;;;7.13;;
15102;SDS011;7652;53.584;9.998;2024-01-30T18:09:42;13.60;;;8.63;;
15102;SDS011;7652;53.584;9.998;2024-01-30T18:13:03;9.30;;;7.37;;
15102;SDS011;7652;53.584;9.998;2024-01-30T18:16:25;8.07;;;7.27;;
15102;SDS011;7652;53.584;9.998;2024-01-30T18:19:47;9.00;;;6.70;;
15102;SDS011;7652;53.584;9.998;2024-01-30T18:23:09;7.90;;;6.20;;
15102;SDS011;7652;53.584;9.998;2024-01-30T18:26:31;11.27;;;5.97;;
15102;SDS011;7652;53.584;9.998;2024-01-30T18:29:52;9.63;;;6.30;;
15102;SDS011;7652;53.584;9.998;2024-01-30T18:33:16;11.80;;;5.67;;
15102;SDS011;7652;53.584;9.998;2024-01-30T18:36:38;8.03;;;4.90;;
15102;SDS011;7652;53.584;9.998;2024-01-30T18:40:03;6.53;;;4.83;;
15102;SDS011;7652;53.584;9.998;2024-01-30T18:43:25;6.57;;;4.63;;
15102;SDS011;7652;53.584;9.998;2024-01-30T18:46:47;7.27;;;4.40;;
15102;SDS011;7652;53.584;9.998;2024-01-30T18:50:09;12.60;;;4.23;;
15102;SDS011;7652;53.584;9.998;2024-01-30T18:53:31;6.53;;;4.33;;
15102;SDS011;7652;53.584;9.998;2024-01-30T18:56:54;7.37;;;4.17;;
15102;SDS011;7652;53.584;9.998;2024-01-30T19:00:16;6.47;;;4.33;;
15102;SDS011;7652;53.584;9.998;2024-01-30T19:03:37;6.13;;;4.37;;
15102;SDS011;7652;53.584;9.998;2024-01-30T19:06:59;5.63;;;4.17;;
15102;SDS011;7652;53.584;9.998;2024-01-30T19:10:21;6.57;;;4.23;;
15102;SDS011;7652;53.584;9.998;2024-01-30T19:13:56;4.43;;;4.03;;
15102;SDS011;7652;53.584;9.998;2024-01-30T19:17:17;5.23;;;4.33;;
15102;SDS011;7652;53.584;9.998;2024-01-30T19:20:39;6.53;;;4.40;;
15102;SDS011;7652;53.584;9.998;2024-01-30T19:24:01;6.37;;;4.37;;
15102;SDS011;7652;53.584;9.998;2024-01-30T19:27:23;4.93;;;3.60;;
15102;SDS011;7652;53.584;9.998;2024-01-30T19:30:46;3.67;;;3.27;;
15102;SDS011;7652;53.584;9.998;2024-01-30T19:34:08;5.10;;;2.67;;
15102;SDS011;7652;53.584;9.998;2024-01-30T19:37:29;4.23;;;2.50;;
15102;SDS011;7652;53.584;9.998;2024-01-30T19:40:52;4.70;;;2.70;;
15102;SDS011;7652;53.584;9.998;2024-01-30T19:44:13;5.00;;;2.60;;
15102;SDS011;7652;53.584;9.998;2024-01-30T19:47:36;3.13;;;2.30;;
15102;SDS011;7652;53.584;9.998;2024-01-30T19:50:58;3.70;;;2.57;;
15102;SDS011;7652;53.584;9.998;2024-01-30T19:54:21;3.40;;;2.50;;
15102;SDS011;7652;53.584;9.998;2024-01-30T19:57:47;2.40;;;2.20;;
15102;SDS011;7652;53.584;9.998;2024-01-30T20:01:09;2.47;;;2.23;;
15102;SDS011;7652;53.584;9.998;2024-01-30T20:04:32;3.27;;;2.50;;
15102;SDS011;7652;53.584;9.998;2024-01-30T20:07:54;4.73;;;3.00;;
15102;SDS011;7652;53.584;9.998;2024-01-30T20:11:16;3.37;;;3.07;;
15102;SDS011;7652;53.584;9.998;2024-01-30T20:14:39;4.60;;;3.50;;
15102;SDS011;7652;53.584;9.998;2024-01-30T20:18:01;3.73;;;3.43;;
15102;SDS011;7652;53.584;9.998;2024-01-30T20:21:24;3.70;;;3.30;;
15102;SDS011;7652;53.584;9.998;2024-01-30T20:24:45;3.93;;;3.63;;
15102;SDS011;7652;53.584;9.998;2024-01-30T20:28:12;4.37;;;3.37;;
15102;SDS011;7652;53.584;9.998;2024-01-30T20:31:34;3.77;;;3.47;;